sensor_id;sensor_type;location;lat;lon;timestamp;temperature;humidity
39621;DHT22;25309;48.686;9.170;2023-08-20T00:01:33;23.90;99.90
39621;DHT22;25309;48.686;9.170;2023-08-20T00:04:02;23.90;99.90
39621;DHT22;25309;48.686;9.170;2023-08-20T00:06:31;23.80;99.90
39621;DHT22;25309;48.686;9.170;2023-08-20T00:08:58;23.80;99.90
39621;DHT22;25309;48.686;9.170;2023-08-20T00:11:33;23.80;99.90
39621;DHT22;25309;48.686;9.170;2023-08-20T00:14:00;23.70;99.90
39621;DHT22;25309;48.686;9.170;2023-08-20T00:16:28;23.70;99.90
39621;DHT22;25309;48.686;9.170;2023-08-20T00:18:55;23.70;99.90
39621;DHT22;25309;48.686;9.170;2023-08-20T00:21:24;23.60;99.90
39621;DHT22;25309;48.686;9.170;2023-08-20T00:23:52;23.50;99.90
39621;DHT22;25309;48.686;9.170;2023-08-20T00:26:19;23.40;99.90
39621;DHT22;25309;48.686;9.170;2023-08-20T00:28:46;23.50;99.90
39621;DHT22;25309;48.686;9.170;2023-08-20T00:31:13;23.50;99.90
39621;DHT22;25309;48.686;9.170;2023-08-20T00:33:41;23.40;99.90
39621;DHT22;25309;48.686;9.170;2023-08-20T00:36:24;23.40;99.90
39621;DHT22;25309;48.686;9.170;2023-08-20T00:38:51;23.40;99.90
39621;DHT22;25309;48.686;9.170;2023-08-20T00:41:18;23.40;99.90
39621;DHT22;25309;48.686;9.170;2023-08-20T00:43:45;23.40;99.90
39621;DHT22;25309;48.686;9.170;2023-08-20T00:46:12;23.30;99.90
39621;DHT22;25309;48.686;9.170;2023-08-20T00:48:39;23.30;99.90
39621;DHT22;25309;48.686;9.170;2023-08-20T00:51:06;23.20;99.90
39621;DHT22;25309;48.686;9.170;2023-08-20T00:53:35;23.20;99.90
39621;DHT22;25309;48.686;9.170;2023-08-20T00:56:02;23.20;99.90
39621;DHT22;25309;48.686;9.170;2023-08-20T00:58:29;23.20;99.90
39621;DHT22;25309;48.686;9.170;2023-08-20T01:00:56;23.20;99.90
39621;DHT22;25309;48.686;9.170;2023-08-20T01:03:23;23.10;99.90
39621;DHT22;25309;48.686;9.170;2023-08-20T01:05:57;23.20;99.90
39621;DHT22;25309;48.686;9.170;2023-08-20T01:08:29;23.20;99.90
39621;DHT22;25309;48.686;9.170;2023-08-20T01:11:09;23.20;99.90
39621;DHT22;25309;48.686;9.170;2023-08-20T01:13:37;23.20;99.90
39621;DHT22;25309;48.686;9.170;2023-08-20T01:16:04;23.20;99.90
39621;DHT22;25309;48.686;9.170;2023-08-20T01:18:31;23.10;99.90
39621;DHT22;25309;48.686;9.170;2023-08-20T01:21:02;23.10;99.90
39621;DHT22;25309;48.686;9.170;2023-08-20T01:26:40;23.00;99.90
39621;DHT22;25309;48.686;9.170;2023-08-20T01:29:16;23.00;99.90
39621;DHT22;25309;48.686;9.170;2023-08-20T01:31:44;23.00;99.90
39621;DHT22;25309;48.686;9.170;2023-08-20T01:34:12;22.90;99.90
39621;DHT22;25309;48.686;9.170;2023-08-20T01:36:39;22.90;99.90
39621;DHT22;25309;48.686;9.170;2023-08-20T01:39:09;22.90;99.90
39621;DHT22;25309;48.686;9.170;2023-08-20T01:41:36;23.00;99.90
39621;DHT22;25309;48.686;9.170;2023-08-20T01:44:04;23.00;99.90
39621;DHT22;25309;48.686;9.170;2023-08-20T01:46:33;23.00;99.90
39621;DHT22;25309;48.686;9.170;2023-08-20T01:49:00;23.00;99.90
39621;DHT22;25309;48.686;9.170;2023-08-20T01:51:27;22.90;99.90
39621;DHT22;25309;48.686;9.170;2023-08-20T01:53:54;22.90;99.90
39621;DHT22;25309;48.686;9.170;2023-08-20T01:56:23;22.90;99.90
39621;DHT22;25309;48.686;9.170;2023-08-20T01:58:50;22.90;99.90
39621;DHT22;25309;48.686;9.170;2023-08-20T02:01:17;22.90;99.90
39621;DHT22;25309;48.686;9.170;2023-08-20T02:03:45;22.90;99.90
39621;DHT22;25309;48.686;9.170;2023-08-20T02:06:12;22.90;99.90
39621;DHT22;25309;48.686;9.170;2023-08-20T02:08:42;22.90;99.90
39621;DHT22;25309;48.686;9.170;2023-08-20T02:11:09;22.90;99.90
39621;DHT22;25309;48.686;9.170;2023-08-20T02:13:36;22.80;99.90
39621;DHT22;25309;48.686;9.170;2023-08-20T02:16:04;22.80;99.90
39621;DHT22;25309;48.686;9.170;2023-08-20T02:18:32;22.80;99.90
39621;DHT22;25309;48.686;9.170;2023-08-20T02:21:00;22.70;99.90
39621;DHT22;25309;48.686;9.170;2023-08-20T02:23:27;22.70;99.90
39621;DHT22;25309;48.686;9.170;2023-08-20T02:25:54;22.70;99.90
39621;DHT22;25309;48.686;9.170;2023-08-20T02:28:21;22.70;99.90
39621;DHT22;25309;48.686;9.170;2023-08-20T02:30:49;22.70;99.90
39621;DHT22;25309;48.686;9.170;2023-08-20T02:33:16;22.60;99.90
39621;DHT22;25309;48.686;9.170;2023-08-20T02:35:43;22.60;99.90
39621;DHT22;25309;48.686;9.170;2023-08-20T02:38:12;22.50;99.90
39621;DHT22;25309;48.686;9.170;2023-08-20T02:40:40;22.50;99.90
39621;DHT22;25309;48.686;9.170;2023-08-20T02:43:07;22.50;99.90
39621;DHT22;25309;48.686;9.170;2023-08-20T02:45:40;22.50;99.90
39621;DHT22;25309;48.686;9.170;2023-08-20T02:48:07;22.50;99.90
39621;DHT22;25309;48.686;9.170;2023-08-20T02:50:34;22.50;99.90
39621;DHT22;25309;48.686;9.170;2023-08-20T02:53:01;22.40;99.90
39621;DHT22;25309;48.686;9.170;2023-08-20T02:55:32;22.40;99.90
39621;DHT22;25309;48.686;9.170;2023-08-20T02:57:59;22.30;99.90
39621;DHT22;25309;48.686;9.170;2023-08-20T03:00:26;22.30;99.90
39621;DHT22;25309;48.686;9.170;2023-08-20T03:02:53;22.30;99.90
39621;DHT22;25309;48.686;9.170;2023-08-20T03:05:20;22.30;99.90
39621;DHT22;25309;48.686;9.170;2023-08-20T03:07:47;22.30;99.90
39621;DHT22;25309;48.686;9.170;2023-08-20T03:10:14;22.30;99.90
39621;DHT22;25309;48.686;9.170;2023-08-20T03:12:43;22.30;99.90
39621;DHT22;25309;48.686;9.170;2023-08-20T03:15:10;22.20;99.90
39621;DHT22;25309;48.686;9.170;2023-08-20T03:17:37;22.20;99.90
39621;DHT22;25309;48.686;9.170;2023-08-20T03:20:05;22.20;99.90
39621;DHT22;25309;48.686;9.170;2023-08-20T03:22:33;22.20;99.90
39621;DHT22;25309;48.686;9.170;2023-08-20T03:25:00;22.10;99.90
39621;DHT22;25309;48.686;9.170;2023-08-20T03:27:27;22.10;99.90
39621;DHT22;25309;48.686;9.170;2023-08-20T03:29:56;22.10;99.90
39621;DHT22;25309;48.686;9.170;2023-08-20T03:32:23;22.10;99.90
39621;DHT22;25309;48.686;9.170;2023-08-20T03:34:50;22.10;99.90
39621;DHT22;25309;48.686;9.170;2023-08-20T03:37:18;22.10;99.90
39621;DHT22;25309;48.686;9.170;2023-08-20T03:39:45;22.10;99.90
39621;DHT22;25309;48.686;9.170;2023-08-20T03:42:12;22.10;99.90
39621;DHT22;25309;48.686;9.170;2023-08-20T03:44:39;22.00;99.90
39621;DHT22;25309;48.686;9.170;2023-08-20T03:47:07;22.00;99.90
39621;DHT22;25309;48.686;9.170;2023-08-20T03:49:35;21.90;99.90
39621;DHT22;25309;48.686;9.170;2023-08-20T03:52:03;21.90;99.90
39621;DHT22;25309;48.686;9.170;2023-08-20T03:54:30;21.90;99.90
39621;DHT22;25309;48.686;9.170;2023-08-20T03:56:57;21.80;99.90
39621;DHT22;25309;48.686;9.170;2023-08-20T03:59:24;21.80;99.90
39621;DHT22;25309;48.686;9.170;2023-08-20T04:01:51;21.80;99.90
39621;DHT22;25309;48.686;9.170;2023-08-20T04:04:19;21.80;99.90
39621;DHT22;25309;48.686;9.170;2023-08-20T04:06:47;21.80;99.90
39621;DHT22;25309;48.686;9.170;2023-08-20T04:09:14;21.80;99.90
39621;DHT22;25309;48.686;9.170;2023-08-20T04:11:41;21.80;99.90
39621;DHT22;25309;48.686;9.170;2023-08-20T04:14:09;21.70;99.90
39621;DHT22;25309;48.686;9.170;2023-08-20T04:16:37;21.70;99.90
39621;DHT22;25309;48.686;9.170;2023-08-20T04:19:04;21.60;99.90
39621;DHT22;25309;48.686;9.170;2023-08-20T04:21:32;21.60;99.90
39621;DHT22;25309;48.686;9.170;2023-08-20T04:23:59;21.60;99.90
39621;DHT22;25309;48.686;9.170;2023-08-20T04:26:26;21.60;99.90
39621;DHT22;25309;48.686;9.170;2023-08-20T04:28:53;21.60;99.90
39621;DHT22;25309;48.686;9.170;2023-08-20T04:31:20;21.60;99.90
39621;DHT22;25309;48.686;9.170;2023-08-20T04:33:57;21.60;99.90
39621;DHT22;25309;48.686;9.170;2023-08-20T04:36:36;21.60;99.90
39621;DHT22;25309;48.686;9.170;2023-08-20T04:39:03;21.60;99.90
39621;DHT22;25309;48.686;9.170;2023-08-20T04:41:34;21.60;99.90
39621;DHT22;25309;48.686;9.170;2023-08-20T04:44:02;21.70;99.90
39621;DHT22;25309;48.686;9.170;2023-08-20T04:46:30;21.70;99.90
39621;DHT22;25309;48.686;9.170;2023-08-20T04:48:58;21.60;99.90
39621;DHT22;25309;48.686;9.170;2023-08-20T04:51:25;21.60;99.90
39621;DHT22;25309;48.686;9.170;2023-08-20T04:53:53;21.60;99.90
39621;DHT22;25309;48.686;9.170;2023-08-20T04:56:20;21.70;99.90
39621;DHT22;25309;48.686;9.170;2023-08-20T04:58:47;21.60;99.90
39621;DHT22;25309;48.686;9.170;2023-08-20T05:01:29;21.60;99.90
39621;DHT22;25309;48.686;9.170;2023-08-20T05:03:56;21.60;99.90
39621;DHT22;25309;48.686;9.170;2023-08-20T05:06:24;21.60;99.90
39621;DHT22;25309;48.686;9.170;2023-08-20T05:08:52;21.60;99.90
39621;DHT22;25309;48.686;9.170;2023-08-20T05:11:20;21.60;99.90
39621;DHT22;25309;48.686;9.170;2023-08-20T05:13:47;21.60;99.90
39621;DHT22;25309;48.686;9.170;2023-08-20T05:16:14;21.60;99.90
39621;DHT22;25309;48.686;9.170;2023-08-20T05:18:42;21.60;99.90
39621;DHT22;25309;48.686;9.170;2023-08-20T05:21:09;21.60;99.90
39621;DHT22;25309;48.686;9.170;2023-08-20T05:23:40;21.60;99.90
39621;DHT22;25309;48.686;9.170;2023-08-20T05:26:08;21.60;99.90
39621;DHT22;25309;48.686;9.170;2023-08-20T05:28:35;21.70;99.90
39621;DHT22;25309;48.686;9.170;2023-08-20T05:31:02;21.70;99.90
39621;DHT22;25309;48.686;9.170;2023-08-20T05:33:30;21.80;99.90
39621;DHT22;25309;48.686;9.170;2023-08-20T05:35:57;21.80;99.90
39621;DHT22;25309;48.686;9.170;2023-08-20T05:38:25;21.80;99.90
39621;DHT22;25309;48.686;9.170;2023-08-20T05:40:52;21.80;99.90
39621;DHT22;25309;48.686;9.170;2023-08-20T05:43:20;21.90;99.90
39621;DHT22;25309;48.686;9.170;2023-08-20T05:45:47;21.90;99.90
39621;DHT22;25309;48.686;9.170;2023-08-20T05:48:19;21.90;99.90
39621;DHT22;25309;48.686;9.170;2023-08-20T05:50:46;21.90;99.90
39621;DHT22;25309;48.686;9.170;2023-08-20T05:53:14;22.00;99.90
39621;DHT22;25309;48.686;9.170;2023-08-20T05:55:42;22.10;99.90
39621;DHT22;25309;48.686;9.170;2023-08-20T05:58:09;22.20;99.90
39621;DHT22;25309;48.686;9.170;2023-08-20T06:00:38;22.20;99.90
39621;DHT22;25309;48.686;9.170;2023-08-20T06:03:05;22.30;99.90
39621;DHT22;25309;48.686;9.170;2023-08-20T06:05:32;22.30;99.90
39621;DHT22;25309;48.686;9.170;2023-08-20T06:07:59;22.40;99.90
39621;DHT22;25309;48.686;9.170;2023-08-20T06:10:26;22.40;99.90
39621;DHT22;25309;48.686;9.170;2023-08-20T06:12:53;22.50;99.90
39621;DHT22;25309;48.686;9.170;2023-08-20T06:15:20;22.60;99.90
39621;DHT22;25309;48.686;9.170;2023-08-20T06:17:49;22.70;99.90
39621;DHT22;25309;48.686;9.170;2023-08-20T06:20:16;22.70;99.90
39621;DHT22;25309;48.686;9.170;2023-08-20T06:22:45;22.80;99.90
39621;DHT22;25309;48.686;9.170;2023-08-20T06:25:12;22.90;99.90
39621;DHT22;25309;48.686;9.170;2023-08-20T06:27:39;23.00;99.90
39621;DHT22;25309;48.686;9.170;2023-08-20T06:30:07;23.10;99.90
39621;DHT22;25309;48.686;9.170;2023-08-20T06:32:35;23.30;99.90
39621;DHT22;25309;48.686;9.170;2023-08-20T06:35:04;23.30;99.90
39621;DHT22;25309;48.686;9.170;2023-08-20T06:37:31;23.50;99.90
39621;DHT22;25309;48.686;9.170;2023-08-20T06:39:59;23.60;99.90
39621;DHT22;25309;48.686;9.170;2023-08-20T06:42:26;23.70;99.90
39621;DHT22;25309;48.686;9.170;2023-08-20T06:44:54;23.70;99.90
39621;DHT22;25309;48.686;9.170;2023-08-20T06:47:21;23.80;99.90
39621;DHT22;25309;48.686;9.170;2023-08-20T06:49:48;23.90;99.90
39621;DHT22;25309;48.686;9.170;2023-08-20T06:52:17;24.00;99.90
39621;DHT22;25309;48.686;9.170;2023-08-20T06:54:44;24.10;99.90
39621;DHT22;25309;48.686;9.170;2023-08-20T06:57:11;24.10;99.90
39621;DHT22;25309;48.686;9.170;2023-08-20T06:59:38;24.30;99.90
39621;DHT22;25309;48.686;9.170;2023-08-20T07:02:05;24.30;99.90
39621;DHT22;25309;48.686;9.170;2023-08-20T07:04:32;24.40;99.90
39621;DHT22;25309;48.686;9.170;2023-08-20T07:07:00;24.40;99.90
39621;DHT22;25309;48.686;9.170;2023-08-20T07:09:28;24.50;99.90
39621;DHT22;25309;48.686;9.170;2023-08-20T07:11:55;24.60;99.90
39621;DHT22;25309;48.686;9.170;2023-08-20T07:14:22;24.70;99.90
39621;DHT22;25309;48.686;9.170;2023-08-20T07:16:49;24.90;99.90
39621;DHT22;25309;48.686;9.170;2023-08-20T07:19:16;25.00;99.90
39621;DHT22;25309;48.686;9.170;2023-08-20T07:21:43;25.10;99.90
39621;DHT22;25309;48.686;9.170;2023-08-20T07:24:10;25.20;99.90
39621;DHT22;25309;48.686;9.170;2023-08-20T07:26:38;25.40;99.90
39621;DHT22;25309;48.686;9.170;2023-08-20T07:29:06;25.50;99.90
39621;DHT22;25309;48.686;9.170;2023-08-20T07:31:33;25.60;99.90
39621;DHT22;25309;48.686;9.170;2023-08-20T07:34:02;25.70;99.90
39621;DHT22;25309;48.686;9.170;2023-08-20T07:36:32;25.80;99.90
39621;DHT22;25309;48.686;9.170;2023-08-20T07:38:59;25.90;99.90
39621;DHT22;25309;48.686;9.170;2023-08-20T07:41:28;25.90;99.90
39621;DHT22;25309;48.686;9.170;2023-08-20T07:43:56;26.00;99.90
39621;DHT22;25309;48.686;9.170;2023-08-20T07:46:23;26.10;99.90
39621;DHT22;25309;48.686;9.170;2023-08-20T07:48:50;26.20;99.90
39621;DHT22;25309;48.686;9.170;2023-08-20T07:51:17;26.20;99.90
39621;DHT22;25309;48.686;9.170;2023-08-20T07:53:44;26.30;99.90
39621;DHT22;25309;48.686;9.170;2023-08-20T07:56:11;26.40;99.90
39621;DHT22;25309;48.686;9.170;2023-08-20T07:58:38;26.50;99.90
39621;DHT22;25309;48.686;9.170;2023-08-20T08:01:06;26.70;99.90
39621;DHT22;25309;48.686;9.170;2023-08-20T08:03:34;26.70;99.90
39621;DHT22;25309;48.686;9.170;2023-08-20T08:06:01;26.80;99.90
39621;DHT22;25309;48.686;9.170;2023-08-20T08:08:28;26.80;99.90
39621;DHT22;25309;48.686;9.170;2023-08-20T08:10:55;26.90;99.90
39621;DHT22;25309;48.686;9.170;2023-08-20T08:13:23;27.00;99.90
39621;DHT22;25309;48.686;9.170;2023-08-20T08:15:51;27.10;99.90
39621;DHT22;25309;48.686;9.170;2023-08-20T08:18:20;27.30;99.90
39621;DHT22;25309;48.686;9.170;2023-08-20T08:20:47;27.40;99.90
39621;DHT22;25309;48.686;9.170;2023-08-20T08:23:14;27.50;99.90
39621;DHT22;25309;48.686;9.170;2023-08-20T08:25:41;27.60;99.90
39621;DHT22;25309;48.686;9.170;2023-08-20T08:28:08;27.70;99.90
39621;DHT22;25309;48.686;9.170;2023-08-20T08:30:36;27.80;99.90
39621;DHT22;25309;48.686;9.170;2023-08-20T08:33:04;27.90;99.90
39621;DHT22;25309;48.686;9.170;2023-08-20T08:35:32;28.00;99.90
39621;DHT22;25309;48.686;9.170;2023-08-20T08:37:59;28.00;99.90
39621;DHT22;25309;48.686;9.170;2023-08-20T08:40:28;28.00;99.90
39621;DHT22;25309;48.686;9.170;2023-08-20T08:42:56;28.20;99.90
39621;DHT22;25309;48.686;9.170;2023-08-20T08:45:23;28.30;99.90
39621;DHT22;25309;48.686;9.170;2023-08-20T08:47:54;28.40;99.90
39621;DHT22;25309;48.686;9.170;2023-08-20T08:50:21;28.50;99.90
39621;DHT22;25309;48.686;9.170;2023-08-20T08:52:51;28.60;99.90
39621;DHT22;25309;48.686;9.170;2023-08-20T08:55:19;28.70;99.90
39621;DHT22;25309;48.686;9.170;2023-08-20T08:57:46;29.00;99.90
39621;DHT22;25309;48.686;9.170;2023-08-20T09:00:14;29.10;99.90
39621;DHT22;25309;48.686;9.170;2023-08-20T09:02:41;29.30;99.90
39621;DHT22;25309;48.686;9.170;2023-08-20T09:05:08;29.40;99.90
39621;DHT22;25309;48.686;9.170;2023-08-20T09:07:35;29.70;99.90
39621;DHT22;25309;48.686;9.170;2023-08-20T09:10:04;29.80;99.90
39621;DHT22;25309;48.686;9.170;2023-08-20T09:12:34;30.10;99.90
39621;DHT22;25309;48.686;9.170;2023-08-20T09:15:01;30.40;99.90
39621;DHT22;25309;48.686;9.170;2023-08-20T09:17:28;30.60;99.90
39621;DHT22;25309;48.686;9.170;2023-08-20T09:19:56;30.80;99.90
39621;DHT22;25309;48.686;9.170;2023-08-20T09:22:27;30.90;99.90
39621;DHT22;25309;48.686;9.170;2023-08-20T09:24:54;31.20;99.90
39621;DHT22;25309;48.686;9.170;2023-08-20T09:27:23;31.60;99.90
39621;DHT22;25309;48.686;9.170;2023-08-20T09:29:52;31.80;99.90
39621;DHT22;25309;48.686;9.170;2023-08-20T09:32:21;32.10;99.90
39621;DHT22;25309;48.686;9.170;2023-08-20T09:34:49;32.50;99.90
39621;DHT22;25309;48.686;9.170;2023-08-20T09:37:19;32.90;99.90
39621;DHT22;25309;48.686;9.170;2023-08-20T09:39:46;33.30;99.90
39621;DHT22;25309;48.686;9.170;2023-08-20T09:42:14;33.60;99.90
39621;DHT22;25309;48.686;9.170;2023-08-20T09:44:43;34.00;99.90
39621;DHT22;25309;48.686;9.170;2023-08-20T09:47:11;34.40;99.90
39621;DHT22;25309;48.686;9.170;2023-08-20T09:49:40;34.70;99.90
39621;DHT22;25309;48.686;9.170;2023-08-20T09:52:08;35.10;99.90
39621;DHT22;25309;48.686;9.170;2023-08-20T09:54:45;35.50;99.90
39621;DHT22;25309;48.686;9.170;2023-08-20T09:57:22;35.70;99.20
39621;DHT22;25309;48.686;9.170;2023-08-20T09:59:51;36.00;98.20
39621;DHT22;25309;48.686;9.170;2023-08-20T10:02:19;36.30;98.00
39621;DHT22;25309;48.686;9.170;2023-08-20T10:04:47;36.50;97.10
39621;DHT22;25309;48.686;9.170;2023-08-20T10:07:14;36.70;95.60
39621;DHT22;25309;48.686;9.170;2023-08-20T10:09:42;37.00;95.70
39621;DHT22;25309;48.686;9.170;2023-08-20T10:12:12;37.20;93.80
39621;DHT22;25309;48.686;9.170;2023-08-20T10:14:40;37.60;93.00
39621;DHT22;25309;48.686;9.170;2023-08-20T10:17:09;37.90;93.60
39621;DHT22;25309;48.686;9.170;2023-08-20T10:19:38;38.20;93.20
39621;DHT22;25309;48.686;9.170;2023-08-20T10:22:06;38.50;92.70
39621;DHT22;25309;48.686;9.170;2023-08-20T10:24:41;38.70;91.60
39621;DHT22;25309;48.686;9.170;2023-08-20T10:27:09;38.80;90.80
39621;DHT22;25309;48.686;9.170;2023-08-20T10:29:37;39.00;88.80
39621;DHT22;25309;48.686;9.170;2023-08-20T10:32:08;38.80;89.90
39621;DHT22;25309;48.686;9.170;2023-08-20T10:34:36;38.80;89.00
39621;DHT22;25309;48.686;9.170;2023-08-20T10:37:09;38.90;86.20
39621;DHT22;25309;48.686;9.170;2023-08-20T10:39:37;38.80;86.50
39621;DHT22;25309;48.686;9.170;2023-08-20T10:42:22;38.60;87.40
39621;DHT22;25309;48.686;9.170;2023-08-20T10:45:00;38.20;89.60
39621;DHT22;25309;48.686;9.170;2023-08-20T10:47:36;38.40;87.40
39621;DHT22;25309;48.686;9.170;2023-08-20T10:50:05;38.80;85.30
39621;DHT22;25309;48.686;9.170;2023-08-20T10:52:32;39.00;84.40
39621;DHT22;25309;48.686;9.170;2023-08-20T10:55:00;39.10;84.80
39621;DHT22;25309;48.686;9.170;2023-08-20T10:57:33;39.20;83.70
39621;DHT22;25309;48.686;9.170;2023-08-20T11:00:03;39.30;83.40
39621;DHT22;25309;48.686;9.170;2023-08-20T11:02:38;39.70;82.70
39621;DHT22;25309;48.686;9.170;2023-08-20T11:05:16;40.00;80.90
39621;DHT22;25309;48.686;9.170;2023-08-20T11:07:45;40.30;80.50
39621;DHT22;25309;48.686;9.170;2023-08-20T11:10:16;40.10;80.10
39621;DHT22;25309;48.686;9.170;2023-08-20T11:12:45;40.00;79.70
39621;DHT22;25309;48.686;9.170;2023-08-20T11:15:12;40.10;81.40
39621;DHT22;25309;48.686;9.170;2023-08-20T11:17:45;40.30;79.40
39621;DHT22;25309;48.686;9.170;2023-08-20T11:20:17;40.40;79.80
39621;DHT22;25309;48.686;9.170;2023-08-20T11:22:44;40.60;77.40
39621;DHT22;25309;48.686;9.170;2023-08-20T11:25:12;40.70;78.30
39621;DHT22;25309;48.686;9.170;2023-08-20T11:27:43;40.50;77.00
39621;DHT22;25309;48.686;9.170;2023-08-20T11:30:11;40.40;75.90
39621;DHT22;25309;48.686;9.170;2023-08-20T11:32:41;40.20;76.90
39621;DHT22;25309;48.686;9.170;2023-08-20T11:35:11;40.20;77.70
39621;DHT22;25309;48.686;9.170;2023-08-20T11:37:40;40.40;78.00
39621;DHT22;25309;48.686;9.170;2023-08-20T11:40:08;40.60;76.80
39621;DHT22;25309;48.686;9.170;2023-08-20T11:42:35;40.70;77.10
39621;DHT22;25309;48.686;9.170;2023-08-20T11:45:02;40.80;77.00
39621;DHT22;25309;48.686;9.170;2023-08-20T11:47:38;40.80;74.60
39621;DHT22;25309;48.686;9.170;2023-08-20T11:50:06;40.90;75.60
39621;DHT22;25309;48.686;9.170;2023-08-20T11:52:35;41.10;74.70
39621;DHT22;25309;48.686;9.170;2023-08-20T11:55:03;41.10;74.40
39621;DHT22;25309;48.686;9.170;2023-08-20T11:57:31;41.10;74.30
39621;DHT22;25309;48.686;9.170;2023-08-20T12:00:00;41.10;74.00
39621;DHT22;25309;48.686;9.170;2023-08-20T12:02:40;41.10;75.00
39621;DHT22;25309;48.686;9.170;2023-08-20T12:05:08;41.30;74.60
39621;DHT22;25309;48.686;9.170;2023-08-20T12:07:37;41.30;74.60
39621;DHT22;25309;48.686;9.170;2023-08-20T12:10:19;41.10;74.50
39621;DHT22;25309;48.686;9.170;2023-08-20T12:12:48;41.10;73.80
39621;DHT22;25309;48.686;9.170;2023-08-20T12:15:15;41.30;73.80
39621;DHT22;25309;48.686;9.170;2023-08-20T12:17:42;41.40;71.50
39621;DHT22;25309;48.686;9.170;2023-08-20T12:20:10;41.70;72.40
39621;DHT22;25309;48.686;9.170;2023-08-20T12:22:41;41.90;72.50
39621;DHT22;25309;48.686;9.170;2023-08-20T12:25:08;42.20;71.20
39621;DHT22;25309;48.686;9.170;2023-08-20T12:27:35;42.50;69.60
39621;DHT22;25309;48.686;9.170;2023-08-20T12:30:02;42.40;70.30
39621;DHT22;25309;48.686;9.170;2023-08-20T12:32:29;42.40;69.20
39621;DHT22;25309;48.686;9.170;2023-08-20T12:34:57;42.40;69.80
39621;DHT22;25309;48.686;9.170;2023-08-20T12:37:24;42.40;68.50
39621;DHT22;25309;48.686;9.170;2023-08-20T12:39:52;42.40;69.00
39621;DHT22;25309;48.686;9.170;2023-08-20T12:42:19;42.40;67.60
39621;DHT22;25309;48.686;9.170;2023-08-20T12:44:46;42.20;68.80
39621;DHT22;25309;48.686;9.170;2023-08-20T12:47:13;42.10;68.90
39621;DHT22;25309;48.686;9.170;2023-08-20T12:49:40;42.00;69.10
39621;DHT22;25309;48.686;9.170;2023-08-20T12:52:06;41.70;70.20
39621;DHT22;25309;48.686;9.170;2023-08-20T12:54:34;41.60;70.30
39621;DHT22;25309;48.686;9.170;2023-08-20T12:57:02;41.70;70.10
39621;DHT22;25309;48.686;9.170;2023-08-20T12:59:29;41.90;69.40
39621;DHT22;25309;48.686;9.170;2023-08-20T13:01:56;42.00;68.80
39621;DHT22;25309;48.686;9.170;2023-08-20T13:04:25;42.10;68.70
39621;DHT22;25309;48.686;9.170;2023-08-20T13:06:52;42.10;68.60
39621;DHT22;25309;48.686;9.170;2023-08-20T13:09:20;41.90;68.20
39621;DHT22;25309;48.686;9.170;2023-08-20T13:11:47;41.90;68.40
39621;DHT22;25309;48.686;9.170;2023-08-20T13:14:16;42.00;68.60
39621;DHT22;25309;48.686;9.170;2023-08-20T13:16:44;42.00;68.50
39621;DHT22;25309;48.686;9.170;2023-08-20T13:19:11;41.90;69.10
39621;DHT22;25309;48.686;9.170;2023-08-20T13:21:38;41.90;68.60
39621;DHT22;25309;48.686;9.170;2023-08-20T13:24:06;41.90;68.00
39621;DHT22;25309;48.686;9.170;2023-08-20T13:26:33;41.70;69.00
39621;DHT22;25309;48.686;9.170;2023-08-20T13:29:00;41.90;68.50
39621;DHT22;25309;48.686;9.170;2023-08-20T13:31:28;42.20;67.50
39621;DHT22;25309;48.686;9.170;2023-08-20T13:33:55;42.30;67.00
39621;DHT22;25309;48.686;9.170;2023-08-20T13:36:22;42.40;67.00
39621;DHT22;25309;48.686;9.170;2023-08-20T13:38:49;42.50;66.70
39621;DHT22;25309;48.686;9.170;2023-08-20T13:41:16;42.60;66.10
39621;DHT22;25309;48.686;9.170;2023-08-20T13:43:43;42.60;66.20
39621;DHT22;25309;48.686;9.170;2023-08-20T13:46:10;42.50;65.90
39621;DHT22;25309;48.686;9.170;2023-08-20T13:48:39;42.50;64.70
39621;DHT22;25309;48.686;9.170;2023-08-20T13:51:06;42.50;63.90
39621;DHT22;25309;48.686;9.170;2023-08-20T13:53:33;42.20;65.00
39621;DHT22;25309;48.686;9.170;2023-08-20T13:55:59;41.60;65.00
39621;DHT22;25309;48.686;9.170;2023-08-20T13:58:26;41.40;66.20
39621;DHT22;25309;48.686;9.170;2023-08-20T14:00:53;41.30;67.20
39621;DHT22;25309;48.686;9.170;2023-08-20T14:03:20;41.40;67.50
39621;DHT22;25309;48.686;9.170;2023-08-20T14:05:49;41.60;67.20
39621;DHT22;25309;48.686;9.170;2023-08-20T14:08:16;41.70;66.40
39621;DHT22;25309;48.686;9.170;2023-08-20T14:10:42;41.70;66.40
39621;DHT22;25309;48.686;9.170;2023-08-20T14:13:09;41.90;65.40
39621;DHT22;25309;48.686;9.170;2023-08-20T14:15:36;41.90;66.00
39621;DHT22;25309;48.686;9.170;2023-08-20T14:18:04;41.90;65.60
39621;DHT22;25309;48.686;9.170;2023-08-20T14:20:34;42.00;65.60
39621;DHT22;25309;48.686;9.170;2023-08-20T14:23:02;41.90;64.70
39621;DHT22;25309;48.686;9.170;2023-08-20T14:25:29;41.70;64.90
39621;DHT22;25309;48.686;9.170;2023-08-20T14:27:56;41.60;65.30
39621;DHT22;25309;48.686;9.170;2023-08-20T14:30:23;41.30;66.00
39621;DHT22;25309;48.686;9.170;2023-08-20T14:32:50;41.10;66.40
39621;DHT22;25309;48.686;9.170;2023-08-20T14:35:17;40.90;66.70
39621;DHT22;25309;48.686;9.170;2023-08-20T14:37:44;40.60;66.80
39621;DHT22;25309;48.686;9.170;2023-08-20T14:40:12;40.00;68.10
39621;DHT22;25309;48.686;9.170;2023-08-20T14:42:39;39.60;69.00
39621;DHT22;25309;48.686;9.170;2023-08-20T14:45:08;39.40;69.40
39621;DHT22;25309;48.686;9.170;2023-08-20T14:47:52;39.20;69.90
39621;DHT22;25309;48.686;9.170;2023-08-20T14:50:19;39.00;70.00
39621;DHT22;25309;48.686;9.170;2023-08-20T14:52:46;38.70;70.60
39621;DHT22;25309;48.686;9.170;2023-08-20T14:55:20;38.40;71.10
39621;DHT22;25309;48.686;9.170;2023-08-20T14:57:47;38.10;72.10
39621;DHT22;25309;48.686;9.170;2023-08-20T15:00:18;37.80;72.40
39621;DHT22;25309;48.686;9.170;2023-08-20T15:02:45;37.60;73.10
39621;DHT22;25309;48.686;9.170;2023-08-20T15:05:12;37.40;73.90
39621;DHT22;25309;48.686;9.170;2023-08-20T15:10:57;37.10;74.70
39621;DHT22;25309;48.686;9.170;2023-08-20T15:13:26;36.90;75.10
39621;DHT22;25309;48.686;9.170;2023-08-20T15:15:53;36.90;75.30
39621;DHT22;25309;48.686;9.170;2023-08-20T15:18:22;36.90;75.50
39621;DHT22;25309;48.686;9.170;2023-08-20T15:20:54;36.90;75.20
39621;DHT22;25309;48.686;9.170;2023-08-20T15:23:22;36.80;75.10
39621;DHT22;25309;48.686;9.170;2023-08-20T15:25:50;36.80;75.30
39621;DHT22;25309;48.686;9.170;2023-08-20T15:28:19;36.80;75.40
39621;DHT22;25309;48.686;9.170;2023-08-20T15:30:46;36.60;75.80
39621;DHT22;25309;48.686;9.170;2023-08-20T15:33:13;36.60;75.80
39621;DHT22;25309;48.686;9.170;2023-08-20T15:35:40;36.50;75.50
39621;DHT22;25309;48.686;9.170;2023-08-20T15:38:08;36.50;75.50
39621;DHT22;25309;48.686;9.170;2023-08-20T15:40:35;36.60;75.90
39621;DHT22;25309;48.686;9.170;2023-08-20T15:43:02;36.80;75.30